KNMI Weerbulletins

Hier vind u de KMNI verwachtingen en de waarnemingen

Bron: KNMI website
Laatste update op 06-04-2020 om 13:08
ZCZC
FBNL50 EHDB 061051
WEERBULLETIN VOOR DE LUCHTVAART
.
GELDIG 061200/061800 UTC
.
SITUATIE: AAN DE ZUIDOOSTFLANK VAN EEN LAGEDRUKGEBIED NABIJ IJSLAND
WORDT MET EEN ZUIDWESTELIJKE STROMING AANVANKELIJK DROGE LUCHT
AANGEVOERD. HALVERWEGE DE PERIODE NADERT EEN N-Z-GEORIENTEERD
KOUFRONT DE WESTKUST, DEZE BEWEEGT OOSTWAARTS EN LIGT AAN HET EINDE
VAN DE PERIODE BOVEN HET WESTEN. DAAR VOORUIT WORDT DE AANGEVOERDE
LUCHT GELEIDELIJK VOCHTIGER.
.
SIGNIFICANT WEER: BIJ HET KOUFRONT KANS OP WAT LICHTE REGEN EN IN
BEWOLKING BOVEN FL060 KANS OP MATIGE IJSAANZETTING.
.
WIND: ZUID TOT ZUIDWEST 8-12 KN, LANGS DE KUST EN BOVEN HET
IJSSELMEER 12-17 KN, RUIMEND NAAR WEST. UITSCHIETERS MOGELIJK TOT
ROND 10 KN BOVEN DE GEMIDDELDE WIND. AAN HET EINDE VAN DE PERIODE
LANGS DE KUST KRIMPEND NAAR WEST TOT ZUIDWEST EN ENKELE KN AFNEMEND.
.
BEWOLKING: VAN HET WESTEN UIT ENKELE VELDEN BKN SC/AC 5000-8000 VT,
BIJ HET KOUFRONT LOKAAL DALEND NAAR SC 1500-3000 VT, AAN HET EINDE
VAN DE PERIODE KANS OP BKN SC 1000-1500 VT. GELAAGD TOT BOVEN FL100.
.
ZICHT: MEER DAN 10 KM. IN NEERSLAG MOGELIJK 5-8 KM.
.
NULGRADEN NIVEAU: FL080-FL090, ACHTER HET KOUFRONT DALEND NAAR
FL060-FL070.
.
HOOGTEWINDEN EN TEMPERATUREN:
       12 UTC:       18 UTC:
0500VT 200/15    +17 290/15-20 +16
1500VT 200/15-20 +14 290/15-20 +14
3000VT 220/25-30 +13 230/15-25 +11
FL 050 220/20-30 +07 210/20-30 +05
FL 100 210/30    -01 240/25-35 -04
HOOGSTE WINDSNELHEDEN IN NW, LAAGSTE IN ZO.
.
THERMIEK: MATIG. DROOG. IN HET WESTEN MOGELIJK AFGESCHERMD. UITDOVEND
ROND 17 UTC.
.
MAX. TEMPERATUUR: VAN 17 GRADEN CELSIUS LANGS DE WESTKUST TOT 23
GRADEN IN HET OOSTEN.
.
VOORUITZICHTEN VOOR DE PERIODE VAN 061800/070000: HET KOUFRONT
BEWEEGT IN ACTIVITEIT AFNEMEND VERDER OOSTWAARTS EN VERLAAT AAN HET
EINDE VAN DE PERIODE HET UITERSTE OOSTEN. NABIJ HET FRONT AF EN TOE
LICHTE REGEN EN VOORAL IN HET NOORDEN TOENEMENDE KANS OP ST. DE WIND
NEEMT AF EN AAN HET EINDE VAN DE PERIODE IS ER KANS OP ENKELE
MISTBANKEN.
.
DAGLICHTPERIODE: 04.48 TOT 18.38 UTC.=
NNNN
Bron: KNMI website
Laatste update op 06-04-2020 om 13:08
ZCZC
FT060500 EHAM     AMSTERDAM/SCHIPHOL   NLD   -3 m.
TAF EHAM 060436Z 0606/0712 16010KT CAVOK
    BECMG 0607/0610 20012KT
    BECMG 0612/0615 25015KT
    PROB40 TEMPO 0616/0619 7000 -RA SCT014 BKN018
    BECMG 0619/0622 24005KT 4000 BR
    BECMG 0622/0701 VRB03KT 1400 BCFG
    BECMG 0701/0704 0600 FG
    PROB30 TEMPO 0702/0707 0200 VV001
    BECMG 0707/0710 10006KT CAVOK=
ZCZC
FT060500 EHBK     MAASTRICHT/MAASTRICHT-AACHEN   NLD   114 m.
TAF EHBK 060511Z 0606/0712 18010KT CAVOK
    BECMG 0606/0609 21011KT
    BECMG 0615/0618 26010KT
    BECMG 0622/0701 VRB03KT
    PROB30 0703/0707 1200 BCFG=
ZCZC
FT060500 EHGG     GRONINGEN/EELDE   NLD   5 m.
TAF COR EHGG 060518Z 0606/0712 15010KT CAVOK
    BECMG 0606/0609 18010KT
    BECMG 0611/0614 22012KT
    BECMG 0614/0617 26012KT
    PROB40 TEMPO 0620/0622 7000 -RA BKN008
    BECMG 0622/0701 VRB02KT 1500 BR BKN002
    PROB40 0700/0708 0400 FG VV001
    BECMG 0706/0709 CAVOK=
ZCZC
FT060500 EHLE     LELYSTAD/LELYSTAD   NLD   -3 m.
TAF EHLE 060436Z 0606/0712 16010KT CAVOK
    BECMG 0607/0610 20012KT
    BECMG 0613/0616 26015KT
    PROB40 TEMPO 0617/0620 7000 -RA BKN014
    BECMG 0620/0623 24005KT 4000 BR
    BECMG 0623/0702 VRB03KT 1400 BCFG
    BECMG 0702/0705 0600 FG
    PROB30 TEMPO 0703/0706 0200 VV001
    BECMG 0707/0710 10006KT CAVOK=
ZCZC
FT060500 EHRD     ROTTERDAM/THE HAGUE AIRPORT   NLD   -5 m.
TAF EHRD 060436Z 0606/0712 16010KT CAVOK
    BECMG 0607/0610 20012KT
    BECMG 0612/0615 25015KT
    PROB40 TEMPO 0616/0619 7000 -RA BKN014
    BECMG 0619/0622 24005KT 4000 BR
    BECMG 0622/0701 VRB03KT 1400 BCFG
    BECMG 0701/0704 0600 FG
    PROB30 TEMPO 0702/0707 0200 VV001
    BECMG 0707/0710 10006KT CAVOK=
ZCZC
FT060500 EHEH     EINDHOVEN/EINDHOVEN   NLD   22 m.
TAF EHEH 060524Z 0606/0712 17007KT CAVOK
    BECMG 0607/0609 20010KT
    BECMG 0612/0614 22012G22KT
    BECMG 0616/0619 25005KT SCT025
    TEMPO 0618/0622 4500 RA BKN010
    BECMG 0622/0700 VRB02KT
    BECMG 0723/0701 2500 BR MIFG
    PROB30 0704/0707 0500 FG BKN001
    PROB30 0707/0709 BKN002
    BECMG 0708/0710 10007KT CAVOK=
ZCZC
FC060900 EHGR     GILZE-RIJEN/GILZE-RIJEN   NLD   14 m.
TAF EHGR 060843Z 0609/0621 21010G20KT CAVOK
    BECMG 0615/0617 23007KT SCT018 BKN030
    PROB30 TEMPO 0616/0619 SCT010 BKN025
    BECMG 0619/0621 SCT045
    PROB30 0619/0621 4000 BR=
ZCZC
FC060900 EHKD     DE KOOY/DE KOOY   NLD   1 m.
TAF EHKD 060849Z 0609/0621 21012KT CAVOK
    BECMG 0609/0611 21015G25KT
    BECMG 0615/0617 23010KT SCT015 BKN030
    PROB40 TEMPO 0616/0620 BKN006 BKN025
    BECMG 0619/0621 24004KT 4000 BR SCT045=
ZCZC
FC060900 EHLW     LEEUWARDEN/LEEUWARDEN   NLD   1 m.
TAF EHLW 060853Z 0609/0621 19010KT CAVOK
    BECMG 0610/0612 23012G22KT
    BECMG 0615/0617 SCT015 BKN030
    PROB40 TEMPO 0616/0620 BKN006 BKN025
    BECMG 0619/0621 24004KT 4000 BR SCT045=
ZCZC
FC060900 EHVK     VOLKEL/VOLKEL   NLD   21 m.
TAF EHVK 060846Z 0609/0621 20012KT CAVOK
    BECMG 0612/0614 22012G22KT
    BECMG 0616/0619 25005KT SCT018 BKN030
    PROB30 TEMPO 0618/0621 SCT010 BKN030=
ZCZC
FC060900 EHWO     WOENSDRECHT/WOENSDRECHT   NLD   19 m.
TAF EHWO 060841Z 0609/0621 21010G20KT CAVOK
    BECMG 0615/0617 23007KT SCT018 BKN030=
Bron: KNMI website
Laatste update op 06-04-2020 om 13:08
ZCZC
SA061025 EHFS     VLISSINGEN AWS   NLD   8 m.
METAR EHFS 061025Z AUTO 20014KT 9999 NCD 16/07 Q1017=
ZCZC
SA061025 EHSG     BSA   NLD   43 m.
METAR EHSG 061025Z AUTO 21015KT //// // NSC 12/06 Q1016 RE//=
ZCZC
SA061055 EHKD     DE KOOY/DE KOOY   NLD   1 m.
METAR EHKD 061055Z AUTO 21017KT 9999 NCD 18/05 Q1016
BLU 22015G25KT CAVOK=
ZCZC
SA061055 EHFD     F3-FB-1   NLD   50 m.
METAR EHFD 061055Z AUTO ///22KT 9999 NSC 09/06 Q1014=
ZCZC
SA061055 EHAM     AMSTERDAM/SCHIPHOL   NLD   -3 m.
METAR EHAM 061055Z 20010KT 160V220 CAVOK 20/06 Q1017 NOSIG=
ZCZC
SA061055 EHVL     VLIELAND   NLD   10 m.
METAR EHVL 061055Z AUTO 20019KT 9999 NCD 18/04 Q1016 BLU=
ZCZC
SA061055 EHJR     K13-A   NLD   37 m.
METAR EHJR 061055Z AUTO 22019KT //// // ///////// 11/07 Q1016 RE//
W09/H9=
ZCZC
SA061055 EHLE     LELYSTAD/LELYSTAD   NLD   -3 m.
METAR EHLE 061055Z AUTO 19010KT 140V230 9999 NCD 20/05 Q1017 NOSIG=
ZCZC
SA061055 EHLW     LEEUWARDEN/LEEUWARDEN   NLD   1 m.
METAR EHLW 061055Z AUTO 21010KT 140V240 9999 NCD 19/05 Q1017
BLU 19010KT CAVOK=
ZCZC
SA061055 EHDL     ARNHEM/DEELEN   NLD   48 m.
METAR EHDL 061055Z AUTO 18010KT 110V240 9999 NCD 20/03 Q1018 BLU=
ZCZC
SA061055 EHGG     GRONINGEN/EELDE   NLD   5 m.
METAR EHGG 061055Z AUTO 16008KT 130V190 9999 NCD 21/05 Q1017 BECMG
21011KT=
ZCZC
SA061055 EHSC     LICHTEILAND GOEREE   NLD   22 m.
METAR EHSC 061055Z AUTO 22019KT 9999 ///////// 13/06 Q1017 W08/H4=
ZCZC
SA061055 EHSA     EURO PLATFORM   NLD   19 m.
METAR EHSA 061055Z AUTO 19016KT 9999 ///////// 11/07 Q1017 W06/H6=
ZCZC
SA061055 EHWO     WOENSDRECHT/WOENSDRECHT   NLD   19 m.
METAR EHWO 061055Z AUTO 20008KT 160V250 9999 FEW087 20/05 Q1017 BLU=
ZCZC
SA061055 EHRD     ROTTERDAM/THE HAGUE AIRPORT   NLD   -5 m.
METAR EHRD 061055Z AUTO 18010KT 150V210 9999 NCD 19/06 Q1017 NOSIG=
ZCZC
SA061055 EHGR     GILZE-RIJEN/GILZE-RIJEN   NLD   14 m.
METAR EHGR 061055Z AUTO 18009KT 140V240 9999 NCD 21/05 Q1018
BLU 18010KT CAVOK=
ZCZC
SA061055 EHEH     EINDHOVEN/EINDHOVEN   NLD   22 m.
METAR EHEH 061055Z AUTO 20009KT 160V240 9999 NCD 21/04 Q1018
BLU 20010KT CAVOK=
ZCZC
SA061055 EHVK     VOLKEL/VOLKEL   NLD   21 m.
METAR EHVK 061055Z AUTO 20010KT 140V210 9999 NCD 21/04 Q1018 BLU=
ZCZC
SA061055 EHBK     MAASTRICHT/MAASTRICHT-AACHEN   NLD   114 m.
METAR EHBK 061055Z AUTO 21012KT 170V250 9999 NCD 20/04 Q1019 NOSIG=
ZCZC
SA061055 EHFZ     F16-A   NLD   43 m.
METAR EHFZ 061055Z AUTO 21024KT 9999 NCD 09/06 Q1015=
ZCZC
SA061055 EHKV     K14-FA-1C   NLD   41 m.
METAR EHKV 061055Z AUTO 13023KT 9999 NSC 10/07 Q1017=
ZCZC
SA061055 EHMG     L9-FF-1   NLD   44 m.
METAR EHMG 061055Z AUTO 20030KT 9999 NCD 12/05 Q1016=
ZCZC
SA061055 EHMA     AWG-1   NLD   40 m.
METAR EHMA 061055Z AUTO 20015KT 180V240 9999 NCD 17/05 Q1016=
ZCZC
SA061055 EHDV     D15-FA-1   NLD   42 m.
METAR EHDV 061055Z AUTO 21019KT 180V250 9999 FEW045/// 09/07 Q1014=
ZCZC
SA061055 EHAK     A12-CPP   NLD   48 m.
METAR EHAK 061055Z AUTO 21021KT 9999 NSC 09/07 Q1013=
ZCZC
SA061055 EHQE     HOORN-A   NLD   50 m.
METAR EHQE 061055Z AUTO 16024KT 9999 NCD 11/06 Q1016=
ZCZC
SA061055 EHJA     J6-A   NLD   45 m.
METAR EHJA 061055Z AUTO 21024KT 9999 FEW043/// 10/07 Q1014=
ZCZC
SA061055 EHPG     P11-B   NLD   41 m.
METAR EHPG 061055Z AUTO 21021KT 170V240 9999 NSC 10/07 Q1016=
ZCZC
SA061055 EHHW     BUITENGAATS/BG-OHVS2      42 m.
METAR EHHW 061055Z AUTO 19011KT 9999 NCD 12/04 Q1016=